Time;durP1;ratioP1;P1;durP2;ratioP2;P2;SDS_P1;SDS_P2;PMS_P1;PMS_P2;Temp;Humidity;BMP_temperature;BMP_pressure;BME280_temperature;BME280_humidity;BME280_pressure;Samples;Min_cycle;Max_cycle;Signal;HPM_P1;HPM_P2
2021/03/06 00:00:36;;;;;;;11.93;10.87;;;;;;;;;;5118260;28;20438;-8
2021/03/06 00:03:04;;;;;;;12.47;11.17;;;;;;;;;;5119691;28;20456;-8
2021/03/06 00:05:35;;;;;;;11.67;10.70;;;;;;;;;;5126228;27;20450;-9
2021/03/06 00:08:04;;;;;;;11.97;10.97;;;;;;;;;;5121448;27;20441;-8
2021/03/06 00:10:32;;;;;;;11.50;10.60;;;;;;;;;;5140268;27;20710;-8
2021/03/06 00:12:59;;;;;;;12.43;11.40;;;;;;;;;;5139160;27;20434;-9
2021/03/06 00:15:27;;;;;;;14.73;12.00;;;;;;;;;;5138383;27;20560;-10
2021/03/06 00:17:57;;;;;;;13.00;11.80;;;;;;;;;;5137179;27;20582;-8
2021/03/06 00:20:25;;;;;;;12.03;10.70;;;;;;;;;;5120751;27;20437;-9
2021/03/06 00:22:53;;;;;;;12.23;11.13;;;;;;;;;;5139892;27;20517;-9
2021/03/06 00:25:22;;;;;;;12.47;11.30;;;;;;;;;;5141058;27;21044;-9
2021/03/06 00:27:51;;;;;;;13.20;12.00;;;;;;;;;;5140101;27;20719;-9
2021/03/06 00:30:19;;;;;;;12.40;11.27;;;;;;;;;;5121184;27;20510;-8
2021/03/06 00:32:47;;;;;;;13.23;11.83;;;;;;;;;;5117362;28;20455;-8
2021/03/06 00:35:16;;;;;;;14.07;12.60;;;;;;;;;;5118668;28;20435;-8
2021/03/06 00:37:48;;;;;;;10.30;9.50;;;;;;;;;;5100706;28;20427;-7
2021/03/06 00:40:16;;;;;;;12.97;11.67;;;;;;;;;;5119373;28;20581;-8
2021/03/06 00:42:45;;;;;;;19.43;17.20;;;;;;;;;;5118736;28;20453;-8
2021/03/06 00:45:13;;;;;;;20.77;18.50;;;;;;;;;;5116951;28;20434;-8
2021/03/06 00:47:42;;;;;;;15.70;14.20;;;;;;;;;;5120792;28;20738;-7
2021/03/06 00:50:20;;;;;;;14.03;12.50;;;;;;;;;;5121924;28;20441;-8
2021/03/06 00:52:49;;;;;;;15.97;13.87;;;;;;;;;;5121164;28;20419;-7
2021/03/06 00:55:17;;;;;;;15.80;14.20;;;;;;;;;;5132605;27;20446;-8
2021/03/06 00:57:49;;;;;;;16.17;14.63;;;;;;;;;;5122526;27;20491;-8
2021/03/06 01:00:18;;;;;;;15.00;13.50;;;;;;;;;;5118997;27;20511;-10
2021/03/06 01:02:47;;;;;;;12.83;11.67;;;;;;;;;;5138705;27;20951;-9
2021/03/06 01:05:18;;;;;;;15.17;13.63;;;;;;;;;;5111838;28;20460;-8
2021/03/06 01:07:48;;;;;;;14.57;12.33;;;;;;;;;;5096526;28;20432;-8
2021/03/06 01:10:31;;;;;;;16.60;14.20;;;;;;;;;;5095612;28;20471;-9
2021/03/06 01:13:00;;;;;;;12.73;11.60;;;;;;;;;;5079028;28;20492;-9
2021/03/06 01:15:28;;;;;;;12.10;11.10;;;;;;;;;;5077113;28;20447;-8
2021/03/06 01:17:58;;;;;;;12.60;11.57;;;;;;;;;;5095858;28;20440;-9
2021/03/06 01:20:27;;;;;;;10.70;10.00;;;;;;;;;;5076940;28;20440;-9
2021/03/06 01:22:55;;;;;;;12.47;11.27;;;;;;;;;;5095811;28;20905;-9
2021/03/06 01:25:22;;;;;;;12.40;11.03;;;;;;;;;;5096647;28;20792;-8
2021/03/06 01:27:50;;;;;;;12.20;11.03;;;;;;;;;;5095377;28;20431;-9
2021/03/06 01:30:18;;;;;;;11.87;10.83;;;;;;;;;;5115776;28;20446;-9
2021/03/06 01:32:47;;;;;;;14.57;13.17;;;;;;;;;;5116734;28;20473;-9
2021/03/06 01:35:15;;;;;;;14.87;13.33;;;;;;;;;;5117932;28;20758;-9
2021/03/06 01:37:44;;;;;;;14.60;13.20;;;;;;;;;;5117778;28;20439;-9
2021/03/06 01:40:13;;;;;;;13.90;12.70;;;;;;;;;;5116848;28;20443;-8
2021/03/06 01:42:52;;;;;;;14.23;12.97;;;;;;;;;;5116710;28;20449;-9
2021/03/06 01:45:20;;;;;;;12.97;11.77;;;;;;;;;;5098586;28;20504;-9
2021/03/06 01:47:48;;;;;;;14.70;13.20;;;;;;;;;;5095712;28;20491;-9
2021/03/06 01:50:19;;;;;;;11.43;10.53;;;;;;;;;;5097503;28;20861;-9
2021/03/06 01:52:47;;;;;;;14.00;12.67;;;;;;;;;;5097309;28;20564;-9
2021/03/06 01:55:17;;;;;;;13.40;12.17;;;;;;;;;;5108209;28;20474;-8
2021/03/06 01:57:46;;;;;;;17.50;15.43;;;;;;;;;;5116785;28;20431;-10
2021/03/06 02:00:15;;;;;;;31.43;21.60;;;;;;;;;;5116082;28;20431;-8
2021/03/06 02:02:44;;;;;;;29.30;20.60;;;;;;;;;;5117480;28;20427;-8
2021/03/06 02:05:12;;;;;;;19.63;17.40;;;;;;;;;;5098339;28;20894;-9
2021/03/06 02:07:43;;;;;;;16.10;13.80;;;;;;;;;;5110755;28;20476;-9
2021/03/06 02:10:12;;;;;;;16.20;14.70;;;;;;;;;;5077607;28;20436;-7
2021/03/06 02:12:47;;;;;;;14.60;13.10;;;;;;;;;;5097044;28;20760;-9
2021/03/06 02:15:16;;;;;;;17.07;14.03;;;;;;;;;;5098291;28;20831;-8
2021/03/06 02:17:52;;;;;;;13.63;12.33;;;;;;;;;;5116630;28;20865;-8
2021/03/06 02:20:39;;;;;;;12.13;11.23;;;;;;;;;;5116386;28;20878;-8
2021/03/06 02:23:27;;;;;;;12.13;10.93;;;;;;;;;;5116450;28;20467;-9
2021/03/06 02:26:05;;;;;;;12.37;10.97;;;;;;;;;;5117612;28;20486;-9
2021/03/06 02:28:37;;;;;;;10.67;9.87;;;;;;;;;;5116280;28;20866;-9
2021/03/06 02:31:06;;;;;;;11.90;10.90;;;;;;;;;;5116160;28;20462;-8
2021/03/06 02:33:37;;;;;;;11.47;10.57;;;;;;;;;;5108365;28;20492;-8
2021/03/06 02:36:08;;;;;;;11.90;10.90;;;;;;;;;;5096427;28;20428;-7
2021/03/06 02:38:36;;;;;;;12.40;11.20;;;;;;;;;;5094858;28;20566;-8
2021/03/06 02:41:05;;;;;;;11.33;10.53;;;;;;;;;;5103848;28;20530;-8
2021/03/06 02:43:33;;;;;;;12.07;11.17;;;;;;;;;;5115263;28;20761;-10
2021/03/06 02:46:05;;;;;;;12.17;10.40;;;;;;;;;;5115934;28;20532;-10
2021/03/06 02:48:35;;;;;;;11.67;10.77;;;;;;;;;;5115452;28;20435;-9
2021/03/06 02:51:04;;;;;;;11.40;10.47;;;;;;;;;;5114803;28;20435;-8
2021/03/06 02:53:32;;;;;;;10.87;10.07;;;;;;;;;;5115866;28;20438;-9
2021/03/06 02:56:00;;;;;;;10.70;9.83;;;;;;;;;;5096757;28;20439;-9
2021/03/06 02:58:45;;;;;;;11.27;10.17;;;;;;;;;;5094997;28;20424;-8
2021/03/06 03:01:15;;;;;;;12.43;11.30;;;;;;;;;;5096492;28;20725;-8
2021/03/06 03:03:50;;;;;;;11.87;10.87;;;;;;;;;;5094379;28;20459;-7
2021/03/06 03:06:24;;;;;;;11.30;10.40;;;;;;;;;;5106059;28;20514;-8
2021/03/06 03:08:58;;;;;;;11.07;10.27;;;;;;;;;;5115093;28;20439;-8
2021/03/06 03:11:36;;;;;;;12.50;11.20;;;;;;;;;;5096818;28;20427;-8
2021/03/06 03:14:05;;;;;;;10.90;10.10;;;;;;;;;;5116115;28;20438;-9
2021/03/06 03:16:35;;;;;;;11.25;10.43;;;;;;;;;;5116137;28;20496;-7
2021/03/06 03:19:05;;;;;;;11.47;10.57;;;;;;;;;;5116238;28;20198;-8
2021/03/06 03:21:35;;;;;;;11.07;10.27;;;;;;;;;;5113573;28;20513;-8
2021/03/06 03:24:06;;;;;;;11.60;10.70;;;;;;;;;;5101685;28;20447;-8
2021/03/06 03:26:37;;;;;;;11.77;10.88;;;;;;;;;;5093072;28;20959;-9
2021/03/06 03:29:07;;;;;;;11.23;10.33;;;;;;;;;;5103013;28;20206;-9
2021/03/06 03:31:35;;;;;;;10.87;10.17;;;;;;;;;;5115400;28;20929;-8
2021/03/06 03:34:09;;;;;;;12.23;11.40;;;;;;;;;;5116098;28;20869;-8
2021/03/06 03:36:38;;;;;;;10.53;9.90;;;;;;;;;;5116022;28;20175;-8
2021/03/06 03:39:07;;;;;;;12.17;11.43;;;;;;;;;;5097757;28;20742;-8
2021/03/06 03:41:35;;;;;;;10.97;10.07;;;;;;;;;;5115209;28;20435;-8
2021/03/06 03:44:06;;;;;;;11.32;10.60;;;;;;;;;;5115180;28;20520;-9
2021/03/06 03:46:35;;;;;;;11.40;10.47;;;;;;;;;;5096842;28;20224;-9
2021/03/06 03:49:04;;;;;;;11.25;10.23;;;;;;;;;;5115753;28;20435;-7
2021/03/06 03:51:33;;;;;;;11.33;10.43;;;;;;;;;;5114788;28;20214;-8
2021/03/06 03:54:02;;;;;;;11.02;10.27;;;;;;;;;;5115297;28;20470;-9
2021/03/06 03:56:29;;;;;;;11.13;10.32;;;;;;;;;;5110621;28;20215;-8
2021/03/06 03:58:56;;;;;;;12.17;10.40;;;;;;;;;;5076984;28;20218;-7
2021/03/06 04:01:24;;;;;;;10.83;10.13;;;;;;;;;;5093122;28;20447;-8
2021/03/06 04:03:52;;;;;;;11.10;10.30;;;;;;;;;;5077456;28;20854;-7
2021/03/06 04:06:21;;;;;;;11.20;10.50;;;;;;;;;;5094975;28;20941;-8
2021/03/06 04:08:51;;;;;;;11.70;10.90;;;;;;;;;;5090719;28;20226;-8
2021/03/06 04:20:05;;;;;;;11.20;10.40;;;;;;;;;;5212256;23;20245;-13
2021/03/06 04:22:32;;;;;;;10.83;10.00;;;;;;;;;;5048580;28;20210;-12
2021/03/06 04:25:01;;;;;;;11.00;10.20;;;;;;;;;;5046926;28;20445;-13
2021/03/06 04:27:32;;;;;;;10.95;10.25;;;;;;;;;;5045091;28;20276;-12
2021/03/06 04:29:59;;;;;;;11.52;10.52;;;;;;;;;;5046243;28;20305;-12
2021/03/06 04:32:26;;;;;;;11.50;10.70;;;;;;;;;;5047362;28;20225;-12
2021/03/06 04:34:54;;;;;;;11.07;10.25;;;;;;;;;;5049047;28;20608;-13
2021/03/06 04:37:46;;;;;;;12.00;11.13;;;;;;;;;;5037223;28;20212;-13
2021/03/06 04:40:15;;;;;;;11.95;11.13;;;;;;;;;;5052838;28;20219;-13
2021/03/06 04:42:42;;;;;;;11.60;10.77;;;;;;;;;;5051783;28;20589;-13
2021/03/06 04:45:11;;;;;;;11.32;10.52;;;;;;;;;;5050240;28;20438;-12
2021/03/06 04:47:41;;;;;;;11.10;10.37;;;;;;;;;;5050083;28;20213;-12
2021/03/06 04:50:10;;;;;;;10.85;10.05;;;;;;;;;;5049813;28;20481;-13
2021/03/06 04:52:37;;;;;;;10.48;9.70;;;;;;;;;;5049742;28;20211;-12
2021/03/06 04:55:08;;;;;;;11.52;10.52;;;;;;;;;;5050243;28;20181;-14
2021/03/06 04:57:44;;;;;;;12.77;11.85;;;;;;;;;;5051486;28;20328;-13
2021/03/06 05:00:12;;;;;;;11.35;10.55;;;;;;;;;;5051113;28;20215;-14
2021/03/06 05:02:39;;;;;;;10.77;10.07;;;;;;;;;;5048660;28;20189;-14
2021/03/06 05:05:07;;;;;;;11.02;10.23;;;;;;;;;;5043287;28;20211;-15
2021/03/06 05:07:36;;;;;;;12.32;11.18;;;;;;;;;;5020077;28;20251;-15
2021/03/06 05:10:03;;;;;;;11.25;10.40;;;;;;;;;;5037986;28;20236;-15
2021/03/06 05:12:30;;;;;;;11.30;10.40;;;;;;;;;;5023455;28;20193;-15
2021/03/06 05:14:59;;;;;;;12.60;11.70;;;;;;;;;;5037979;28;20236;-15
2021/03/06 05:17:26;;;;;;;11.20;10.57;;;;;;;;;;5037453;28;20189;-15
2021/03/06 05:19:53;;;;;;;11.63;10.82;;;;;;;;;;5036613;28;20320;-15
2021/03/06 05:22:21;;;;;;;11.02;10.13;;;;;;;;;;5036588;28;20208;-16
2021/03/06 05:24:48;;;;;;;11.17;10.37;;;;;;;;;;5003022;28;20316;-16
2021/03/06 05:27:16;;;;;;;11.38;10.45;;;;;;;;;;5035355;28;21037;-15
2021/03/06 05:29:44;;;;;;;10.77;10.13;;;;;;;;;;5020065;28;20540;-15
2021/03/06 05:32:12;;;;;;;10.55;9.95;;;;;;;;;;5039188;28;20304;-15
2021/03/06 05:34:39;;;;;;;10.73;9.98;;;;;;;;;;5057610;28;20246;-15
2021/03/06 05:37:06;;;;;;;11.80;10.80;;;;;;;;;;5060791;28;20546;-15
2021/03/06 05:39:34;;;;;;;11.75;10.95;;;;;;;;;;5061582;28;20213;-15
2021/03/06 05:42:01;;;;;;;12.93;11.82;;;;;;;;;;5061131;28;20197;-15
2021/03/06 05:44:28;;;;;;;11.23;10.48;;;;;;;;;;5060567;28;20185;-15
2021/03/06 05:46:59;;;;;;;11.30;10.70;;;;;;;;;;5056842;28;20566;-15
2021/03/06 05:49:27;;;;;;;12.00;11.10;;;;;;;;;;5059098;28;20212;-15
2021/03/06 05:51:54;;;;;;;11.43;10.73;;;;;;;;;;5040684;28;20200;-15
2021/03/06 05:54:22;;;;;;;12.25;11.25;;;;;;;;;;5056650;28;20783;-15
2021/03/06 05:56:50;;;;;;;11.32;10.32;;;;;;;;;;5057008;28;20646;-16
2021/03/06 05:59:17;;;;;;;12.48;11.50;;;;;;;;;;5044954;28;20209;-16
2021/03/06 06:01:45;;;;;;;11.10;10.10;;;;;;;;;;5036415;28;20213;-16
2021/03/06 06:04:12;;;;;;;10.27;9.48;;;;;;;;;;5036812;28;20213;-16
2021/03/06 06:06:40;;;;;;;11.93;10.98;;;;;;;;;;5027064;28;20316;-15
2021/03/06 06:09:09;;;;;;;10.68;9.88;;;;;;;;;;5016604;28;20206;-15
2021/03/06 06:11:36;;;;;;;11.00;10.40;;;;;;;;;;5018151;28;20190;-15
2021/03/06 06:14:05;;;;;;;10.07;9.47;;;;;;;;;;5015549;28;20226;-15
2021/03/06 06:16:33;;;;;;;11.38;10.60;;;;;;;;;;5018225;28;20454;-15
2021/03/06 06:19:00;;;;;;;10.48;9.70;;;;;;;;;;5023020;28;20352;-16
2021/03/06 06:21:38;;;;;;;11.48;10.57;;;;;;;;;;5056159;28;20197;-16
2021/03/06 06:24:06;;;;;;;9.95;9.35;;;;;;;;;;5054258;28;20203;-16
2021/03/06 06:26:34;;;;;;;9.73;9.10;;;;;;;;;;5053630;28;20460;-16
2021/03/06 06:29:01;;;;;;;10.30;9.70;;;;;;;;;;5054368;28;20492;-16
2021/03/06 06:31:28;;;;;;;10.27;9.30;;;;;;;;;;5054667;28;20480;-16
2021/03/06 06:33:56;;;;;;;11.48;10.68;;;;;;;;;;5055695;28;20266;-15
2021/03/06 06:36:38;;;;;;;10.10;9.30;;;;;;;;;;5053181;28;20197;-15
2021/03/06 06:39:06;;;;;;;12.00;10.90;;;;;;;;;;5054612;28;20283;-15
2021/03/06 06:41:50;;;;;;;11.32;10.40;;;;;;;;;;5056902;28;20426;-15
2021/03/06 06:44:17;;;;;;;10.80;9.90;;;;;;;;;;5057586;28;20188;-16
2021/03/06 06:46:45;;;;;;;9.77;9.13;;;;;;;;;;5059225;28;20480;-15
2021/03/06 06:49:12;;;;;;;10.00;9.20;;;;;;;;;;5040865;28;20224;-16
2021/03/06 06:51:56;;;;;;;10.27;9.37;;;;;;;;;;5036328;28;20220;-15
2021/03/06 06:54:24;;;;;;;8.67;8.13;;;;;;;;;;5037138;28;20450;-14
2021/03/06 06:56:52;;;;;;;10.77;9.77;;;;;;;;;;5034622;28;20435;-14
2021/03/06 06:59:19;;;;;;;10.50;9.80;;;;;;;;;;5032118;28;20450;-14
2021/03/06 07:01:47;;;;;;;9.40;8.80;;;;;;;;;;5016109;28;20439;-16
2021/03/06 07:04:14;;;;;;;10.47;9.60;;;;;;;;;;5033037;28;20466;-16
2021/03/06 07:06:41;;;;;;;9.87;9.27;;;;;;;;;;5024090;28;21221;-16
2021/03/06 07:09:11;;;;;;;9.47;8.90;;;;;;;;;;5013709;28;20440;-16
2021/03/06 07:11:38;;;;;;;9.93;9.20;;;;;;;;;;5013484;28;20452;-16
2021/03/06 07:14:06;;;;;;;9.40;8.70;;;;;;;;;;5014505;28;20467;-16
2021/03/06 07:16:52;;;;;;;10.23;9.50;;;;;;;;;;5013684;28;21220;-15
2021/03/06 07:19:19;;;;;;;9.60;8.90;;;;;;;;;;5001585;28;20526;-15
2021/03/06 07:21:47;;;;;;;10.20;9.50;;;;;;;;;;5013377;28;20443;-16
2021/03/06 07:24:15;;;;;;;9.73;9.10;;;;;;;;;;5014671;28;20505;-15
2021/03/06 07:26:42;;;;;;;10.10;9.30;;;;;;;;;;5013499;28;20463;-15
2021/03/06 07:29:10;;;;;;;9.07;8.47;;;;;;;;;;5013575;28;20435;-15
2021/03/06 07:31:38;;;;;;;10.70;9.90;;;;;;;;;;5030732;28;20452;-15
2021/03/06 07:34:07;;;;;;;9.53;8.73;;;;;;;;;;5034902;28;20449;-16
2021/03/06 07:36:37;;;;;;;10.17;9.47;;;;;;;;;;5052694;28;20448;-15
2021/03/06 07:39:05;;;;;;;9.63;9.00;;;;;;;;;;5034057;28;20516;-16
2021/03/06 07:41:35;;;;;;;9.63;9.13;;;;;;;;;;5033438;28;20538;-15
2021/03/06 07:44:04;;;;;;;9.13;8.40;;;;;;;;;;5031469;28;20443;-16
2021/03/06 07:46:38;;;;;;;9.83;9.23;;;;;;;;;;5033960;28;20505;-15
2021/03/06 07:49:11;;;;;;;10.77;9.87;;;;;;;;;;5032931;28;20455;-16
2021/03/06 07:51:42;;;;;;;10.10;9.30;;;;;;;;;;5036035;28;20465;-15
2021/03/06 07:54:13;;;;;;;9.50;8.90;;;;;;;;;;5033239;28;20469;-15
2021/03/06 07:56:40;;;;;;;9.50;8.80;;;;;;;;;;5031862;28;20455;-16
2021/03/06 07:59:09;;;;;;;9.73;9.10;;;;;;;;;;5020022;28;21164;-17
2021/03/06 08:01:38;;;;;;;9.20;8.70;;;;;;;;;;4993464;28;20522;-17
2021/03/06 08:04:06;;;;;;;10.70;9.80;;;;;;;;;;5013518;28;20518;-17
2021/03/06 08:06:37;;;;;;;10.83;9.93;;;;;;;;;;5011766;28;20594;-16
2021/03/06 08:09:09;;;;;;;9.03;8.50;;;;;;;;;;5013352;28;20470;-16
2021/03/06 08:11:38;;;;;;;11.63;9.40;;;;;;;;;;5018643;28;20446;-18
2021/03/06 08:14:07;;;;;;;9.57;8.80;;;;;;;;;;5020434;28;20461;-16
2021/03/06 08:16:36;;;;;;;9.83;9.03;;;;;;;;;;5039077;28;20470;-17
2021/03/06 08:19:25;;;;;;;12.30;9.87;;;;;;;;;;5011846;28;20522;-17
2021/03/06 08:21:54;;;;;;;9.20;8.60;;;;;;;;;;5017969;28;20463;-17
2021/03/06 08:24:28;;;;;;;9.47;8.80;;;;;;;;;;5016690;28;20498;-16
2021/03/06 08:27:15;;;;;;;10.07;9.47;;;;;;;;;;5019085;28;20489;-16
2021/03/06 08:29:43;;;;;;;9.40;8.80;;;;;;;;;;5000770;28;20463;-17
2021/03/06 08:32:12;;;;;;;10.27;9.23;;;;;;;;;;5017809;28;20443;-16
2021/03/06 08:34:46;;;;;;;9.60;8.90;;;;;;;;;;5000311;28;21060;-16
2021/03/06 08:37:30;;;;;;;9.67;9.00;;;;;;;;;;4999891;28;20447;-16
2021/03/06 08:39:58;;;;;;;10.00;9.30;;;;;;;;;;5013800;28;20447;-16
2021/03/06 08:42:27;;;;;;;9.67;9.07;;;;;;;;;;5016824;28;20443;-17
2021/03/06 08:44:55;;;;;;;10.00;9.30;;;;;;;;;;5003108;28;20586;-16
2021/03/06 08:47:23;;;;;;;10.23;9.43;;;;;;;;;;5003439;28;20471;-15
2021/03/06 08:49:53;;;;;;;8.77;8.27;;;;;;;;;;5002316;28;20506;-17
2021/03/06 08:52:21;;;;;;;10.90;10.10;;;;;;;;;;5000431;28;20524;-15
2021/03/06 08:54:48;;;;;;;10.53;9.73;;;;;;;;;;4995046;28;20455;-15
2021/03/06 08:57:25;;;;;;;9.57;9.00;;;;;;;;;;5012311;28;20443;-15
2021/03/06 08:59:53;;;;;;;9.83;9.13;;;;;;;;;;5012368;28;20435;-14
2021/03/06 09:02:21;;;;;;;9.60;9.00;;;;;;;;;;5011218;28;21091;-15
2021/03/06 09:04:48;;;;;;;10.60;9.90;;;;;;;;;;5012809;28;20427;-14
2021/03/06 09:07:30;;;;;;;9.70;9.10;;;;;;;;;;5011841;28;20526;-15
2021/03/06 09:10:11;;;;;;;9.40;8.60;;;;;;;;;;5014368;28;20494;-14
2021/03/06 09:12:39;;;;;;;9.87;9.03;;;;;;;;;;4997839;28;20447;-13
2021/03/06 09:15:10;;;;;;;9.87;9.17;;;;;;;;;;5017113;28;20489;-14
2021/03/06 09:17:38;;;;;;;9.60;9.00;;;;;;;;;;5016736;28;20431;-13
2021/03/06 09:20:07;;;;;;;9.63;8.87;;;;;;;;;;5020545;28;21010;-13
2021/03/06 09:22:41;;;;;;;10.10;9.40;;;;;;;;;;5020426;28;20436;-14
2021/03/06 09:25:10;;;;;;;9.87;9.27;;;;;;;;;;5000318;28;20490;-14
2021/03/06 09:27:44;;;;;;;10.10;9.27;;;;;;;;;;4996670;28;20465;-14
2021/03/06 09:30:22;;;;;;;10.10;9.40;;;;;;;;;;4978519;28;20437;-14
2021/03/06 09:32:50;;;;;;;10.10;9.30;;;;;;;;;;4978618;28;20528;-14
2021/03/06 09:35:17;;;;;;;11.17;10.00;;;;;;;;;;4978244;28;20452;-14
2021/03/06 09:37:46;;;;;;;9.80;9.00;;;;;;;;;;4995555;28;20441;-13
2021/03/06 09:40:19;;;;;;;9.93;9.07;;;;;;;;;;4985824;28;20456;-13
2021/03/06 09:42:52;;;;;;;10.40;9.73;;;;;;;;;;4979216;28;20868;-13
2021/03/06 09:45:19;;;;;;;10.20;9.60;;;;;;;;;;4979333;28;20867;-13
2021/03/06 09:47:47;;;;;;;10.73;9.93;;;;;;;;;;4993260;28;20471;-13
2021/03/06 09:50:15;;;;;;;9.90;9.17;;;;;;;;;;4976027;28;20456;-13
2021/03/06 09:56:09;;;;;;;10.40;9.80;;;;;;;;;;5008720;28;20471;-14
2021/03/06 09:58:37;;;;;;;10.70;10.10;;;;;;;;;;5011754;28;20490;-13
2021/03/06 10:01:15;;;;;;;10.10;9.60;;;;;;;;;;4995930;28;20616;-14
2021/03/06 10:03:43;;;;;;;9.00;8.50;;;;;;;;;;5013006;28;20454;-13
2021/03/06 10:06:11;;;;;;;9.83;9.33;;;;;;;;;;5015569;28;20511;-14
2021/03/06 10:08:40;;;;;;;9.20;8.70;;;;;;;;;;5007539;28;20470;-14
2021/03/06 10:11:07;;;;;;;10.30;9.80;;;;;;;;;;5021788;28;20931;-14
2021/03/06 10:13:34;;;;;;;10.13;9.53;;;;;;;;;;5039420;28;20443;-13
2021/03/06 10:16:03;;;;;;;8.83;8.33;;;;;;;;;;5021345;28;20435;-13
2021/03/06 10:18:37;;;;;;;8.70;8.30;;;;;;;;;;5021496;28;20454;-14
2021/03/06 10:21:10;;;;;;;9.57;8.83;;;;;;;;;;5020109;28;20475;-14
2021/03/06 10:23:40;;;;;;;8.83;8.33;;;;;;;;;;5036167;28;20486;-14
2021/03/06 10:26:22;;;;;;;9.47;8.97;;;;;;;;;;5000569;28;20538;-14
2021/03/06 10:28:52;;;;;;;11.10;10.00;;;;;;;;;;4997291;28;20789;-14
2021/03/06 10:31:42;;;;;;;9.37;8.83;;;;;;;;;;5011736;28;20825;-14
2021/03/06 10:34:24;;;;;;;8.40;8.00;;;;;;;;;;4991704;28;20921;-14
2021/03/06 10:37:11;;;;;;;9.40;8.80;;;;;;;;;;5013039;28;20427;-14
2021/03/06 10:39:56;;;;;;;8.03;7.63;;;;;;;;;;4995616;28;20826;-14
2021/03/06 10:42:23;;;;;;;9.20;8.53;;;;;;;;;;5013689;28;20509;-14
2021/03/06 10:44:51;;;;;;;8.20;7.80;;;;;;;;;;5013046;28;20455;-14
2021/03/06 10:47:18;;;;;;;8.70;8.00;;;;;;;;;;4992706;28;21134;-14
2021/03/06 10:49:48;;;;;;;7.60;7.20;;;;;;;;;;5010967;28;20439;-14
2021/03/06 10:52:33;;;;;;;8.27;7.87;;;;;;;;;;4995443;28;20439;-14
2021/03/06 10:55:00;;;;;;;8.53;8.03;;;;;;;;;;5014177;28;20463;-15
2021/03/06 10:57:27;;;;;;;8.33;7.83;;;;;;;;;;5034182;28;20522;-12
2021/03/06 10:59:55;;;;;;;8.33;7.90;;;;;;;;;;5031977;28;20450;-14
2021/03/06 11:02:30;;;;;;;8.67;8.37;;;;;;;;;;4996827;28;20454;-14
2021/03/06 11:05:13;;;;;;;8.37;7.80;;;;;;;;;;4993112;28;20443;-14
2021/03/06 11:07:41;;;;;;;8.40;7.90;;;;;;;;;;5010435;28;20501;-14
2021/03/06 11:10:12;;;;;;;7.93;7.60;;;;;;;;;;5010535;28;20451;-13
2021/03/06 11:12:50;;;;;;;7.60;7.30;;;;;;;;;;4980695;28;20442;-14
2021/03/06 11:15:17;;;;;;;7.80;7.33;;;;;;;;;;5036036;28;20453;-15
2021/03/06 11:17:45;;;;;;;8.40;7.90;;;;;;;;;;5036697;28;20442;-14
2021/03/06 11:20:14;;;;;;;8.90;8.40;;;;;;;;;;5034307;28;20453;-13
2021/03/06 11:22:43;;;;;;;8.07;7.60;;;;;;;;;;5014482;28;20996;-13
2021/03/06 11:31:32;;;;;;;7.50;7.10;;;;;;;;;;5013365;28;20482;-14
2021/03/06 11:34:01;;;;;;;8.10;7.50;;;;;;;;;;5011711;28;20513;-14
2021/03/06 11:36:28;;;;;;;8.90;8.40;;;;;;;;;;5036479;28;20653;-14
2021/03/06 11:38:57;;;;;;;8.50;8.10;;;;;;;;;;5017168;28;20466;-14
2021/03/06 11:41:24;;;;;;;8.10;7.80;;;;;;;;;;5030357;28;20430;-14
2021/03/06 11:43:52;;;;;;;8.20;7.83;;;;;;;;;;5026232;28;20443;-14
2021/03/06 11:46:19;;;;;;;8.50;8.10;;;;;;;;;;5014467;28;20855;-14
2021/03/06 11:48:47;;;;;;;8.07;7.70;;;;;;;;;;5016199;28;20481;-14
2021/03/06 11:51:15;;;;;;;8.50;7.83;;;;;;;;;;5018052;28;20650;-14
2021/03/06 11:53:42;;;;;;;8.00;7.60;;;;;;;;;;5019939;28;20719;-14
2021/03/06 11:56:10;;;;;;;7.90;7.53;;;;;;;;;;5020672;28;20436;-14
2021/03/06 11:58:38;;;;;;;8.90;8.40;;;;;;;;;;5018424;28;20431;-14
2021/03/06 12:01:05;;;;;;;9.43;8.93;;;;;;;;;;5019350;28;20459;-14
2021/03/06 12:03:33;;;;;;;7.80;7.43;;;;;;;;;;5003408;28;20439;-14
2021/03/06 12:06:02;;;;;;;7.97;7.57;;;;;;;;;;5019488;28;20497;-15
2021/03/06 12:08:29;;;;;;;8.30;7.90;;;;;;;;;;5002472;28;20803;-14
2021/03/06 12:10:56;;;;;;;8.30;7.87;;;;;;;;;;5019510;28;20585;-15
2021/03/06 12:13:25;;;;;;;9.43;8.47;;;;;;;;;;5017462;28;20447;-14
2021/03/06 12:15:52;;;;;;;8.00;7.60;;;;;;;;;;5019410;28;20439;-14
2021/03/06 12:18:20;;;;;;;8.80;8.20;;;;;;;;;;5002235;28;20497;-15
2021/03/06 12:20:48;;;;;;;7.93;7.53;;;;;;;;;;5001045;28;20451;-13
2021/03/06 12:23:15;;;;;;;7.00;6.70;;;;;;;;;;5001228;28;21033;-14
2021/03/06 12:25:42;;;;;;;8.10;7.70;;;;;;;;;;5000749;28;20439;-14
2021/03/06 12:28:09;;;;;;;7.77;7.40;;;;;;;;;;5018142;28;20493;-14
2021/03/06 12:30:38;;;;;;;8.40;8.00;;;;;;;;;;5001073;28;20781;-14
2021/03/06 12:33:07;;;;;;;8.17;7.77;;;;;;;;;;5001025;28;20565;-14
2021/03/06 12:35:34;;;;;;;8.17;7.87;;;;;;;;;;5018755;28;20439;-15
2021/03/06 12:38:01;;;;;;;7.53;7.17;;;;;;;;;;5000928;28;20466;-14
2021/03/06 12:40:30;;;;;;;8.10;7.70;;;;;;;;;;5017142;28;20439;-13
2021/03/06 12:42:57;;;;;;;7.40;7.10;;;;;;;;;;5015710;28;20450;-14
2021/03/06 12:45:24;;;;;;;7.67;7.37;;;;;;;;;;5016388;28;20436;-15
2021/03/06 12:51:04;;;;;;;8.30;7.90;;;;;;;;;;4993125;28;20539;-14
2021/03/06 12:53:59;;;;;;;8.07;7.57;;;;;;;;;;4995888;28;20509;-14
2021/03/06 12:56:27;;;;;;;8.07;7.67;;;;;;;;;;4977312;28;20535;-14
2021/03/06 12:58:55;;;;;;;9.00;8.60;;;;;;;;;;5012824;28;20530;-14
2021/03/06 13:01:23;;;;;;;8.13;7.50;;;;;;;;;;5000542;28;20450;-15
2021/03/06 13:03:51;;;;;;;8.17;7.77;;;;;;;;;;5031922;28;20434;-14
2021/03/06 13:06:18;;;;;;;9.20;8.80;;;;;;;;;;5031445;28;20445;-14
2021/03/06 13:08:45;;;;;;;9.43;8.93;;;;;;;;;;5013688;28;20760;-14
2021/03/06 13:11:13;;;;;;;8.17;7.77;;;;;;;;;;4996413;28;21008;-14
2021/03/06 13:13:40;;;;;;;8.27;7.87;;;;;;;;;;5012325;28;20541;-14
2021/03/06 13:16:09;;;;;;;8.67;8.27;;;;;;;;;;5034411;28;20467;-14
2021/03/06 13:18:36;;;;;;;8.77;8.30;;;;;;;;;;5036703;28;20798;-15
2021/03/06 13:21:04;;;;;;;8.67;8.17;;;;;;;;;;5032182;28;20473;-15
2021/03/06 13:23:32;;;;;;;8.87;8.37;;;;;;;;;;5014068;28;20486;-15
2021/03/06 13:25:59;;;;;;;8.50;8.10;;;;;;;;;;4993250;28;20509;-15
2021/03/06 13:28:34;;;;;;;8.80;8.40;;;;;;;;;;5010482;28;20464;-15
2021/03/06 13:31:02;;;;;;;7.90;7.50;;;;;;;;;;4992682;28;20562;-15
2021/03/06 13:33:31;;;;;;;9.20;8.70;;;;;;;;;;5009103;28;20444;-15
2021/03/06 13:35:58;;;;;;;8.23;7.83;;;;;;;;;;5011240;28;20544;-15
2021/03/06 13:38:26;;;;;;;8.57;8.00;;;;;;;;;;4994763;28;20521;-16
2021/03/06 13:40:53;;;;;;;8.67;8.27;;;;;;;;;;4993459;28;20450;-15
2021/03/06 13:43:21;;;;;;;8.10;7.60;;;;;;;;;;4978997;28;20530;-16
2021/03/06 13:45:49;;;;;;;8.60;8.10;;;;;;;;;;5015204;28;20501;-16
2021/03/06 13:48:16;;;;;;;8.33;7.83;;;;;;;;;;5015505;28;20526;-16
2021/03/06 13:50:43;;;;;;;8.20;7.80;;;;;;;;;;5015423;28;20444;-15
2021/03/06 13:53:11;;;;;;;7.80;7.40;;;;;;;;;;5013595;28;20467;-16
2021/03/06 13:55:40;;;;;;;9.40;8.80;;;;;;;;;;5011754;28;20475;-16
2021/03/06 13:58:08;;;;;;;8.40;7.90;;;;;;;;;;5011488;28;20467;-16
2021/03/06 14:00:36;;;;;;;7.67;7.37;;;;;;;;;;4997735;28;20455;-16
2021/03/06 14:03:03;;;;;;;8.30;7.90;;;;;;;;;;5007356;28;20650;-17
2021/03/06 14:08:46;;;;;;;8.53;8.03;;;;;;;;;;5003272;28;20574;-17
2021/03/06 14:11:14;;;;;;;7.77;7.43;;;;;;;;;;5017239;28;20461;-17
2021/03/06 14:13:41;;;;;;;8.30;7.70;;;;;;;;;;5016516;28;21033;-17
2021/03/06 14:16:11;;;;;;;8.00;7.60;;;;;;;;;;4999038;28;20451;-17
2021/03/06 14:18:39;;;;;;;8.23;7.63;;;;;;;;;;4998840;28;20462;-16
2021/03/06 14:21:07;;;;;;;8.70;8.20;;;;;;;;;;5014947;28;20481;-17
2021/03/06 14:23:34;;;;;;;8.47;7.77;;;;;;;;;;4996212;28;20527;-17
2021/03/06 14:26:02;;;;;;;8.60;8.17;;;;;;;;;;5012052;28;20435;-18
2021/03/06 14:28:30;;;;;;;7.70;7.40;;;;;;;;;;5011661;28;20534;-17
2021/03/06 14:30:57;;;;;;;7.90;7.60;;;;;;;;;;5008171;28;20446;-18
2021/03/06 14:33:25;;;;;;;7.70;7.30;;;;;;;;;;5011321;28;20909;-18
2021/03/06 14:35:52;;;;;;;7.80;7.40;;;;;;;;;;4992158;28;20439;-18
2021/03/06 14:38:19;;;;;;;7.60;7.30;;;;;;;;;;5008808;28;20539;-17
2021/03/06 14:40:47;;;;;;;8.20;7.90;;;;;;;;;;5011293;28;20473;-18
2021/03/06 14:43:14;;;;;;;7.73;7.33;;;;;;;;;;5009900;28;20494;-17
2021/03/06 14:45:42;;;;;;;8.20;7.80;;;;;;;;;;5011046;28;20514;-17
2021/03/06 14:48:10;;;;;;;8.37;8.00;;;;;;;;;;5012007;28;20503;-17
2021/03/06 14:50:37;;;;;;;7.60;7.30;;;;;;;;;;5021047;28;20477;-17
2021/03/06 14:53:04;;;;;;;7.87;7.33;;;;;;;;;;5031171;28;20435;-18
2021/03/06 14:55:32;;;;;;;8.47;8.07;;;;;;;;;;5031714;28;20449;-17
2021/03/06 14:57:59;;;;;;;8.60;8.10;;;;;;;;;;5032352;28;20442;-17
2021/03/06 15:00:27;;;;;;;8.60;8.20;;;;;;;;;;5017485;28;20444;-17
2021/03/06 15:03:00;;;;;;;8.83;8.40;;;;;;;;;;5010997;28;20513;-17
2021/03/06 15:05:43;;;;;;;9.00;8.40;;;;;;;;;;5011956;28;20513;-17
2021/03/06 15:11:27;;;;;;;9.37;8.77;;;;;;;;;;5009265;28;20806;-17
2021/03/06 15:13:54;;;;;;;8.40;8.00;;;;;;;;;;5011184;28;20510;-17
2021/03/06 15:16:23;;;;;;;8.20;7.80;;;;;;;;;;5011703;28;20467;-17